createdAt,value
2022-09-15T00:02:06.244Z,20.18
2022-09-15T00:04:58.440Z,20.98
2022-09-15T00:07:50.673Z,21.61
2022-09-15T00:10:32.782Z,21.99
2022-09-15T00:13:27.454Z,22.26
2022-09-15T00:16:22.379Z,22.49
2022-09-15T00:19:14.528Z,22.64
2022-09-15T00:22:06.749Z,22.82
2022-09-15T00:24:54.095Z,22.74
2022-09-15T00:27:46.030Z,21.73
2022-09-15T00:30:40.775Z,20.74
2022-09-15T00:33:32.835Z,20.37
2022-09-15T00:36:27.021Z,21.18
2022-09-15T00:39:19.266Z,21.87
2022-09-15T00:42:15.796Z,22.26
2022-09-15T00:45:15.543Z,22.48
2022-09-15T00:48:09.631Z,22.71
2022-09-15T00:51:03.027Z,22.90
2022-09-15T00:53:55.724Z,23.01
2022-09-15T00:56:50.711Z,23.17
2022-09-15T00:59:45.517Z,23.01
2022-09-15T01:02:39.515Z,21.98
2022-09-15T01:05:48.682Z,21.07
2022-09-15T01:08:45.222Z,20.78
2022-09-15T01:11:28.542Z,21.62
2022-09-15T01:14:20.878Z,22.22
2022-09-15T01:17:11.609Z,22.52
2022-09-15T01:20:35.226Z,22.68
2022-09-15T01:24:00.202Z,22.80
2022-09-15T01:27:18.510Z,22.89
2022-09-15T01:30:18.210Z,23.04
2022-09-15T01:33:18.840Z,22.86
2022-09-15T01:36:17.168Z,21.78
2022-09-15T01:39:15.467Z,20.81
2022-09-15T01:42:13.362Z,20.46
2022-09-15T01:45:09.839Z,21.29
2022-09-15T01:48:03.900Z,21.96
2022-09-15T01:51:00.683Z,22.37
2022-09-15T01:53:54.037Z,22.61
2022-09-15T01:56:46.716Z,22.78
2022-09-15T01:59:39.117Z,22.92
2022-09-15T02:02:36.980Z,23.04
2022-09-15T02:05:33.645Z,22.77
2022-09-15T02:08:31.396Z,21.68
2022-09-15T02:11:28.312Z,20.68
2022-09-15T02:14:26.244Z,20.33
2022-09-15T02:17:20.756Z,21.10
2022-09-15T02:20:16.134Z,21.68
2022-09-15T02:23:12.860Z,22.10
2022-09-15T02:26:10.218Z,22.43
2022-09-15T02:29:07.454Z,22.68
2022-09-15T02:32:06.987Z,22.90
2022-09-15T02:35:07.883Z,23.07
2022-09-15T02:38:01.453Z,22.83
2022-09-15T02:40:54.178Z,21.78
2022-09-15T02:43:47.653Z,20.85
2022-09-15T02:46:40.429Z,20.50
2022-09-15T02:49:32.614Z,21.26
2022-09-15T02:52:04.805Z,21.79
2022-09-15T02:54:57.123Z,22.18
2022-09-15T02:57:49.411Z,22.44
2022-09-15T03:00:42.664Z,22.68
2022-09-15T03:03:41.107Z,22.88
2022-09-15T03:06:36.208Z,23.09
2022-09-15T03:09:28.753Z,22.95
2022-09-15T03:12:21.142Z,21.89
2022-09-15T03:15:15.895Z,20.91
2022-09-15T03:17:58.011Z,20.48
2022-09-15T03:20:50.268Z,21.25
2022-09-15T03:23:43.333Z,21.95
2022-09-15T03:26:35.776Z,22.33
2022-09-15T03:29:28.481Z,22.55
2022-09-15T03:32:10.900Z,22.70
2022-09-15T03:34:42.835Z,22.79
2022-09-15T03:37:35.445Z,22.85
2022-09-15T03:40:27.651Z,22.90
2022-09-15T03:43:20.006Z,22.76
2022-09-15T03:46:14.721Z,21.72
2022-09-15T03:49:06.220Z,20.68
2022-09-15T03:51:58.927Z,20.27
2022-09-15T03:54:52.005Z,21.09
2022-09-15T03:57:44.579Z,21.74
2022-09-15T04:00:37.778Z,22.08
2022-09-15T04:03:23.110Z,22.30
2022-09-15T04:06:15.919Z,22.44
2022-09-15T04:09:08.809Z,22.52
2022-09-15T04:12:01.320Z,22.59
2022-09-15T04:14:54.110Z,22.72
2022-09-15T04:17:46.755Z,22.80
2022-09-15T04:20:30.022Z,22.86
2022-09-15T04:23:22.314Z,22.94
2022-09-15T04:26:19.977Z,22.99
2022-09-15T04:29:14.896Z,22.70
2022-09-15T04:32:07.473Z,21.50
2022-09-15T04:34:59.605Z,20.52
2022-09-15T04:37:51.831Z,20.18
2022-09-15T04:40:44.045Z,21.03
2022-09-15T04:43:36.861Z,21.65
2022-09-15T04:46:30.722Z,22.00
2022-09-15T04:49:23.326Z,22.24
2022-09-15T04:52:15.974Z,22.42
2022-09-15T04:55:10.836Z,22.62
2022-09-15T04:58:03.490Z,22.75
2022-09-15T05:00:55.887Z,22.85
2022-09-15T05:03:49.475Z,22.97
2022-09-15T05:06:41.831Z,23.09
2022-09-15T05:09:34.678Z,22.91
2022-09-15T05:12:27.982Z,21.89
2022-09-15T05:15:13.865Z,20.99
2022-09-15T05:18:06.540Z,20.69
2022-09-15T05:20:38.545Z,21.50
2022-09-15T05:23:31.455Z,22.27
2022-09-15T05:26:25.822Z,22.76
2022-09-15T05:29:06.767Z,23.07
2022-09-15T05:31:59.037Z,23.29
2022-09-15T05:34:53.612Z,23.16
2022-09-15T05:37:45.990Z,22.07
2022-09-15T05:40:38.353Z,21.06
2022-09-15T05:43:23.290Z,20.68
2022-09-15T05:46:09.348Z,21.45
2022-09-15T05:49:02.135Z,22.18
2022-09-15T05:51:35.090Z,22.55
2022-09-15T05:54:28.469Z,22.78
2022-09-15T05:57:21.259Z,22.97
2022-09-15T06:00:15.673Z,23.20
2022-09-15T06:03:08.856Z,23.40
2022-09-15T06:06:03.579Z,23.55
2022-09-15T06:08:59.432Z,23.72
2022-09-15T06:11:52.300Z,23.69
2022-09-15T06:14:37.176Z,22.85
2022-09-15T06:17:29.840Z,22.02
2022-09-15T06:20:22.558Z,21.45
2022-09-15T06:23:14.783Z,21.38
2022-09-15T06:26:12.908Z,22.53
2022-09-15T06:29:06.862Z,23.53
2022-09-15T06:32:02.805Z,24.18
2022-09-15T06:34:55.164Z,24.32
2022-09-15T06:37:47.743Z,23.52
2022-09-15T06:40:39.888Z,22.76
2022-09-15T06:43:33.553Z,22.20
2022-09-15T06:46:28.417Z,21.80
2022-09-15T06:49:21.982Z,22.00
2022-09-15T06:52:13.144Z,23.27
2022-09-15T06:55:06.148Z,24.14
2022-09-15T06:57:58.651Z,24.38
2022-09-15T07:00:50.874Z,23.84
2022-09-15T07:03:44.516Z,23.34
2022-09-15T07:06:28.661Z,22.85
2022-09-15T07:09:20.922Z,22.29
2022-09-15T07:11:55.920Z,22.05
2022-09-15T07:14:48.098Z,22.97
2022-09-15T07:17:40.617Z,23.87
2022-09-15T07:20:33.084Z,24.53
2022-09-15T07:23:25.405Z,24.74
2022-09-15T07:26:19.266Z,24.09
2022-09-15T07:29:12.320Z,23.49
2022-09-15T07:32:05.042Z,23.18
2022-09-15T07:34:58.522Z,22.94
2022-09-15T07:37:50.030Z,22.71
2022-09-15T07:40:42.343Z,22.52
2022-09-15T07:43:35.353Z,22.75
2022-09-15T07:46:31.442Z,24.10
2022-09-15T07:49:17.118Z,25.07
2022-09-15T07:52:10.097Z,25.29
2022-09-15T07:55:02.496Z,24.48
2022-09-15T07:58:00.650Z,23.64
2022-09-15T08:00:53.038Z,22.93
2022-09-15T08:03:40.332Z,22.48
2022-09-15T08:06:34.820Z,22.49
2022-09-15T08:09:20.985Z,23.56
2022-09-15T08:12:13.503Z,24.40
2022-09-15T08:14:50.677Z,24.85
2022-09-15T08:17:43.226Z,24.84
2022-09-15T08:20:35.671Z,23.99
2022-09-15T08:23:28.341Z,23.14
2022-09-15T08:26:21.132Z,22.45
2022-09-15T08:29:13.606Z,22.28
2022-09-15T08:32:06.229Z,23.09
2022-09-15T08:34:58.539Z,23.70
2022-09-15T08:37:51.373Z,24.13
2022-09-15T08:40:48.322Z,24.43
2022-09-15T08:43:38.649Z,24.73
2022-09-15T08:46:37.700Z,25.03
2022-09-15T08:49:51.067Z,25.25
2022-09-15T08:52:31.615Z,25.41
2022-09-15T08:55:34.688Z,25.21
2022-09-15T08:58:30.845Z,24.01
2022-09-15T09:01:37.499Z,22.97
2022-09-15T09:04:48.435Z,22.78
2022-09-15T09:07:40.101Z,23.74
2022-09-15T09:10:42.846Z,24.49
2022-09-15T09:13:42.450Z,25.00
2022-09-15T09:16:45.041Z,25.38
2022-09-15T09:20:00.411Z,25.30
2022-09-15T09:22:55.349Z,24.25
2022-09-15T09:25:49.808Z,23.46
2022-09-15T09:28:49.205Z,22.80
2022-09-15T09:31:42.985Z,22.62
2022-09-15T09:34:32.898Z,23.39
2022-09-15T09:37:15.639Z,24.01
2022-09-15T09:40:13.476Z,24.36
2022-09-15T09:43:04.420Z,24.50
2022-09-15T09:45:56.751Z,24.64
2022-09-15T09:48:39.877Z,24.79
2022-09-15T09:51:35.173Z,24.56
2022-09-15T09:54:28.814Z,23.49
2022-09-15T09:57:32.614Z,22.56
2022-09-15T10:00:39.918Z,22.28
2022-09-15T10:03:33.127Z,23.29
2022-09-15T10:06:08.464Z,23.93
2022-09-15T10:09:04.877Z,24.31
2022-09-15T10:12:00.470Z,24.55
2022-09-15T10:14:56.423Z,24.78
2022-09-15T10:17:50.821Z,24.51
2022-09-15T10:20:51.181Z,23.36
2022-09-15T10:23:43.862Z,22.19
2022-09-15T10:26:37.725Z,21.76
2022-09-15T10:29:38.256Z,22.48
2022-09-15T10:32:32.291Z,23.13
2022-09-15T10:35:16.878Z,23.59
2022-09-15T10:38:14.130Z,23.99
2022-09-15T10:41:03.699Z,24.32
2022-09-15T10:44:20.157Z,24.62
2022-09-15T10:47:12.864Z,24.50
2022-09-15T10:50:16.857Z,23.55
2022-09-15T10:53:15.299Z,22.82
2022-09-15T10:56:16.511Z,22.86
2022-09-15T10:59:35.581Z,24.26
2022-09-15T11:02:49.390Z,25.50
2022-09-15T11:05:52.058Z,25.72
2022-09-15T11:09:00.991Z,24.81
2022-09-15T11:12:05.567Z,23.82
2022-09-15T11:15:17.607Z,23.12
2022-09-15T11:18:38.979Z,22.31
2022-09-15T11:21:35.865Z,22.32
2022-09-15T11:24:30.303Z,23.27
2022-09-15T11:27:28.934Z,23.98
2022-09-15T11:30:24.417Z,24.48
2022-09-15T11:33:02.535Z,24.65
2022-09-15T11:36:00.447Z,23.77
2022-09-15T11:38:57.980Z,22.79
2022-09-15T11:41:56.613Z,22.06
2022-09-15T11:44:50.869Z,21.82
2022-09-15T11:47:40.835Z,22.57
2022-09-15T11:50:29.413Z,23.19
2022-09-15T11:53:28.719Z,23.77
2022-09-15T11:56:27.481Z,24.28
2022-09-15T11:59:29.535Z,24.41
2022-09-15T12:02:29.569Z,23.50
2022-09-15T12:05:25.431Z,22.62
2022-09-15T12:08:17.421Z,22.10
2022-09-15T12:11:13.421Z,22.00
2022-09-15T12:14:07.015Z,22.99
2022-09-15T12:17:11.431Z,23.63
2022-09-15T12:20:07.963Z,23.70
2022-09-15T12:23:12.942Z,22.76
2022-09-15T12:26:15.495Z,21.85
2022-09-15T12:29:41.902Z,21.26
2022-09-15T12:32:35.687Z,21.36
2022-09-15T12:35:34.345Z,22.40
2022-09-15T12:38:33.193Z,23.27
2022-09-15T12:41:05.670Z,23.77
2022-09-15T12:44:00.275Z,24.21
2022-09-15T12:46:56.338Z,24.25
2022-09-15T12:49:49.321Z,23.38
2022-09-15T12:52:51.505Z,22.50
2022-09-15T12:55:51.885Z,22.00
2022-09-15T12:58:34.744Z,21.66
2022-09-15T13:01:50.426Z,21.34
2022-09-15T13:04:58.092Z,21.02
2022-09-15T13:07:58.880Z,21.34
2022-09-15T13:11:04.732Z,22.71
2022-09-15T13:14:10.760Z,23.65
2022-09-15T13:17:07.043Z,24.15
2022-09-15T13:19:52.770Z,24.45
2022-09-15T13:22:51.021Z,24.32
2022-09-15T13:25:44.948Z,23.37
2022-09-15T13:28:38.464Z,22.58
2022-09-15T13:31:40.474Z,21.97
2022-09-15T13:35:20.663Z,21.47
2022-09-15T13:38:32.099Z,21.83
2022-09-15T13:41:43.921Z,23.24
2022-09-15T13:45:05.119Z,24.29
2022-09-15T13:48:19.428Z,24.59
2022-09-15T13:51:20.694Z,23.83
2022-09-15T13:54:19.261Z,23.24
2022-09-15T13:57:11.564Z,22.82
2022-09-15T14:00:10.946Z,22.46
2022-09-15T14:03:12.407Z,22.14
2022-09-15T14:06:10.659Z,21.93
2022-09-15T14:09:08.076Z,21.76
2022-09-15T14:12:00.526Z,21.61
2022-09-15T14:14:50.856Z,21.52
2022-09-15T14:17:48.163Z,21.36
2022-09-15T14:20:40.203Z,21.26
2022-09-15T14:23:33.070Z,21.12
2022-09-15T14:26:17.183Z,21.32
2022-09-15T14:28:57.357Z,22.50
2022-09-15T14:31:50.333Z,23.57
2022-09-15T14:34:43.166Z,23.90
2022-09-15T14:37:27.820Z,23.28
2022-09-15T14:40:27.825Z,22.55
2022-09-15T14:43:32.520Z,21.96
2022-09-15T14:46:25.015Z,21.51
2022-09-15T14:49:18.002Z,21.58
2022-09-15T14:51:55.177Z,22.59
2022-09-15T14:54:47.360Z,23.49
2022-09-15T15:00:47.743Z,24.38
2022-09-15T15:03:47.612Z,24.38
2022-09-15T15:06:46.395Z,23.54
2022-09-15T15:09:33.909Z,22.84
2022-09-15T15:12:28.448Z,22.30
2022-09-15T15:15:20.071Z,21.86
2022-09-15T15:18:38.612Z,21.84
2022-09-15T15:21:44.038Z,23.01
2022-09-15T15:24:24.382Z,23.74
2022-09-15T15:27:43.825Z,24.21
2022-09-15T15:30:44.603Z,24.54
2022-09-15T15:33:36.819Z,24.53
2022-09-15T15:36:30.811Z,23.64
2022-09-15T15:39:26.607Z,22.78
2022-09-15T15:42:17.631Z,22.08
2022-09-15T15:45:24.343Z,21.88
2022-09-15T15:48:16.527Z,22.87
2022-09-15T15:51:09.426Z,23.55
2022-09-15T15:54:01.589Z,23.94
2022-09-15T15:56:53.995Z,24.19
2022-09-15T15:59:47.448Z,24.11
2022-09-15T16:02:39.512Z,23.20
2022-09-15T16:05:32.754Z,22.30
2022-09-15T16:08:30.322Z,21.99
2022-09-15T16:11:22.352Z,22.88
2022-09-15T16:14:16.515Z,23.55
2022-09-15T16:17:08.506Z,23.94
2022-09-15T16:20:00.295Z,24.18
2022-09-15T16:22:44.886Z,24.35
2022-09-15T16:25:44.121Z,24.25
2022-09-15T16:28:36.322Z,23.28
2022-09-15T16:31:28.562Z,22.35
2022-09-15T16:34:20.871Z,21.99
2022-09-15T16:37:14.094Z,22.77
2022-09-15T16:40:07.141Z,23.37
2022-09-15T16:42:59.199Z,23.69
2022-09-15T16:45:52.967Z,23.90
2022-09-15T16:48:47.398Z,24.00
2022-09-15T16:51:31.567Z,24.01
2022-09-15T16:54:23.952Z,24.12
2022-09-15T16:57:18.306Z,24.26
2022-09-15T17:00:14.726Z,24.38
2022-09-15T17:03:09.062Z,24.17
2022-09-15T17:06:02.399Z,23.17
2022-09-15T17:08:55.736Z,22.29
2022-09-15T17:11:31.879Z,21.87
2022-09-15T17:14:24.079Z,22.53
2022-09-15T17:17:05.235Z,23.08
2022-09-15T17:19:58.120Z,23.41
2022-09-15T17:22:51.249Z,23.60
2022-09-15T17:25:49.014Z,23.74
2022-09-15T17:28:39.725Z,23.80
2022-09-15T17:31:32.745Z,23.77
2022-09-15T17:34:24.895Z,23.94
2022-09-15T17:37:17.132Z,24.06
2022-09-15T17:40:10.820Z,24.16
2022-09-15T17:43:03.592Z,24.26
2022-09-15T17:45:49.349Z,24.33
2022-09-15T17:48:31.204Z,24.17
2022-09-15T17:51:23.375Z,23.17
2022-09-15T17:54:07.538Z,22.20
2022-09-15T17:57:02.681Z,21.73
2022-09-15T17:59:54.800Z,22.43
2022-09-15T18:02:36.757Z,23.02
2022-09-15T18:05:30.677Z,23.39
2022-09-15T18:08:23.021Z,23.63
2022-09-15T18:11:07.552Z,23.80
2022-09-15T18:14:00.910Z,23.90
2022-09-15T18:16:53.028Z,23.93
2022-09-15T18:19:45.760Z,23.88
2022-09-15T18:22:37.993Z,23.80
2022-09-15T18:25:32.158Z,23.72
2022-09-15T18:28:24.359Z,23.75
2022-09-15T18:31:16.884Z,23.82
2022-09-15T18:34:10.594Z,23.91
2022-09-15T18:37:03.095Z,24.00
2022-09-15T18:39:55.486Z,24.04
2022-09-15T18:42:29.908Z,24.07
2022-09-15T18:45:03.866Z,24.07
2022-09-15T18:47:35.763Z,24.06
2022-09-15T18:50:13.288Z,24.01
2022-09-15T18:52:47.928Z,23.98
2022-09-15T18:55:43.819Z,23.93
2022-09-15T18:58:28.454Z,23.90
2022-09-15T19:01:20.743Z,23.87
2022-09-15T19:04:13.285Z,23.86
2022-09-15T19:07:05.344Z,23.82
2022-09-15T19:09:58.531Z,23.79
2022-09-15T19:12:51.296Z,23.74
2022-09-15T19:15:44.274Z,23.71
2022-09-15T19:18:37.062Z,23.67
2022-09-15T19:21:29.239Z,23.63
2022-09-15T19:24:15.708Z,23.61
2022-09-15T19:27:10.029Z,23.57
2022-09-15T19:30:02.410Z,23.43
2022-09-15T19:32:34.921Z,23.33
2022-09-15T19:35:27.014Z,23.22
2022-09-15T19:38:07.731Z,23.15
2022-09-15T19:41:06.779Z,23.01
2022-09-15T19:44:01.457Z,22.88
2022-09-15T19:46:46.052Z,22.72
2022-09-15T19:49:17.869Z,22.56
2022-09-15T19:51:54.962Z,22.53
2022-09-15T19:54:31.624Z,22.53
2022-09-15T19:57:16.374Z,22.56
2022-09-15T20:00:11.706Z,22.68
2022-09-15T20:02:57.169Z,22.78
2022-09-15T20:05:54.082Z,22.84
2022-09-15T20:08:48.250Z,22.90
2022-09-15T20:11:40.380Z,22.98
2022-09-15T20:14:34.807Z,23.09
2022-09-15T20:17:28.573Z,23.22
2022-09-15T20:20:22.901Z,23.28
2022-09-15T20:23:16.167Z,23.35
2022-09-15T20:26:05.429Z,23.41
2022-09-15T20:29:01.300Z,23.45
2022-09-15T20:31:54.903Z,23.47
2022-09-15T20:34:50.003Z,23.49
2022-09-15T20:37:43.241Z,23.55
2022-09-15T20:40:32.970Z,23.68
2022-09-15T20:43:27.980Z,23.52
2022-09-15T20:46:22.936Z,22.44
2022-09-15T20:49:16.668Z,21.39
2022-09-15T20:52:09.873Z,20.90
2022-09-15T20:55:02.987Z,21.60
2022-09-15T20:57:56.092Z,22.19
2022-09-15T21:00:49.102Z,22.48
2022-09-15T21:03:43.011Z,22.61
2022-09-15T21:06:26.827Z,22.71
2022-09-15T21:09:19.563Z,22.76
2022-09-15T21:12:12.400Z,22.78
2022-09-15T21:15:05.282Z,22.73
2022-09-15T21:17:58.274Z,22.69
2022-09-15T21:20:57.619Z,22.64
2022-09-15T21:23:51.866Z,22.66
2022-09-15T21:26:58.429Z,22.58
2022-09-15T21:29:53.730Z,22.54
2022-09-15T21:32:46.241Z,22.46
2022-09-15T21:35:40.194Z,22.40
2022-09-15T21:38:32.696Z,22.36
2022-09-15T21:41:27.352Z,22.37
2022-09-15T21:44:13.145Z,22.37
2022-09-15T21:47:05.716Z,22.35
2022-09-15T21:50:01.464Z,22.40
2022-09-15T21:52:47.134Z,22.33
2022-09-15T21:55:40.885Z,22.29
2022-09-15T21:58:39.013Z,22.26
2022-09-15T22:01:35.976Z,22.18
2022-09-15T22:04:28.498Z,22.10
2022-09-15T22:07:21.840Z,22.05
2022-09-15T22:10:14.409Z,22.03
2022-09-15T22:13:07.613Z,22.01
2022-09-15T22:16:05.741Z,21.98
2022-09-15T22:18:52.298Z,21.92
2022-09-15T22:21:36.906Z,21.90
2022-09-15T22:24:29.538Z,21.87
2022-09-15T22:27:22.063Z,21.87
2022-09-15T22:30:09.444Z,21.84
2022-09-15T22:32:51.863Z,21.80
2022-09-15T22:35:49.580Z,21.80
2022-09-15T22:38:42.258Z,21.78
2022-09-15T22:41:28.884Z,21.70
2022-09-15T22:44:22.965Z,21.67
2022-09-15T22:47:15.466Z,21.68
2022-09-15T22:50:08.598Z,21.72
2022-09-15T22:53:00.273Z,21.75
2022-09-15T22:55:53.177Z,21.73
2022-09-15T22:58:34.767Z,21.70
2022-09-15T23:01:28.639Z,21.58
2022-09-15T23:04:13.122Z,21.48
2022-09-15T23:07:05.752Z,21.35
2022-09-15T23:09:47.932Z,21.35
2022-09-15T23:12:39.079Z,21.26
2022-09-15T23:15:31.161Z,21.14
2022-09-15T23:18:23.159Z,21.08
2022-09-15T23:21:15.822Z,20.98
2022-09-15T23:23:59.299Z,20.93
2022-09-15T23:26:43.705Z,20.87
2022-09-15T23:29:28.593Z,20.86
2022-09-15T23:32:20.681Z,20.84
2022-09-15T23:35:13.169Z,20.85
2022-09-15T23:38:05.363Z,20.79
2022-09-15T23:40:57.343Z,20.70
2022-09-15T23:43:33.293Z,20.72
2022-09-15T23:46:25.341Z,20.72
2022-09-15T23:49:18.778Z,20.76
2022-09-15T23:52:10.953Z,20.79
2022-09-15T23:55:04.149Z,20.78
2022-09-15T23:57:49.057Z,20.77
